MSSS/SAL METAR and TAF weather

Enter ICAO airport designator
Station Type Date Time Source
MSSS METAR 2022/01/29 12:50 UTC NOAA

MSSS 291250Z 36004KT CAVOK 21/17 Q1018 A3007


Station Type Date Time Source
MSSS Decoded METAR 2022/01/29 12:50 UTC NOAA

San Salvador / Ilopango, El Salvador (MSSS) 13-42N 089-07W 621M
Jan 29, 2022 - 07:50 AM EST / 2022.01.29 1250 UTC
Wind: from the N (360 degrees) at 5 MPH (4 KT):0
Visibility: greater than 7 mile(s):0
Temperature: 69 F (21 C)
Dew Point: 62 F (17 C)
Relative Humidity: 77%
Pressure (altimeter): 30.07 in. Hg (1018 hPa)
ob: MSSS 291250Z 36004KT CAVOK 21/17 Q1018 A3007
cycle: 13

Station Type Date Time Source
MSSS TAF 2022/01/29 12:35 UTC NOAA

TAF MSSS 290925Z 2912/3012 35006G20KT CAVOK TX32/2921Z TN17/3012Z
TEMPO 2920/2924 9999 SCT050

Example: see airport list